KGLE/GLE METAR and TAF weather

Enter ICAO airport designator
Station Type Date Time Source
KGLE METAR 2021/04/17 02:15 UTC NOAA

KGLE 170215Z AUTO 34014KT 10SM SCT005 OVC012 11/10 A3001 RMK AO2 T01060098


Station Type Date Time Source
KGLE Decoded METAR 2021/04/17 02:15 UTC NOAA

Gainesville, Gainesville Municipal Airport, TX, United States (KGLE) 33-39-05N 097-11-49W
Apr 16, 2021 - 10:15 PM EDT / 2021.04.17 0215 UTC
Wind: from the NNW (340 degrees) at 16 MPH (14 KT):0
Visibility: 10 mile(s):0
Sky conditions: overcast
Temperature: 51.1 F (10.6 C)
Dew Point: 49.6 F (9.8 C)
Relative Humidity: 94%
Pressure (altimeter): 30.01 in. Hg (1016 hPa)
ob: KGLE 170215Z AUTO 34014KT 10SM SCT005 OVC012 11/10 A3001 RMK AO2 T01060098
cycle: 2

Station Type Date Time Source
KGLE TAF UTC NOAA

Error!

Example: see airport list